Time;durP1;ratioP1;P1;durP2;ratioP2;P2;SDS_P1;SDS_P2;PMS_P1;PMS_P2;Temp;Humidity;BMP_temperature;BMP_pressure;BME280_temperature;BME280_humidity;BME280_pressure;Samples;Min_cycle;Max_cycle;Signal;HPM_P1;HPM_P2
2023/08/12 00:00:10;;;;;;;16.08;10.57;;;;;;;20.76;100.00;101601.88;5030612;28;20488;-56
2023/08/12 00:02:40;;;;;;;15.27;10.57;;;;;;;20.76;100.00;101617.91;5030747;28;20045;-56
2023/08/12 00:05:11;;;;;;;16.52;10.68;;;;;;;20.71;100.00;101614.81;5031614;28;20057;-56
2023/08/12 00:07:42;;;;;;;15.60;10.23;;;;;;;20.76;100.00;101617.91;5032126;28;20069;-56
2023/08/12 00:10:11;;;;;;;16.38;10.25;;;;;;;20.80;100.00;101619.28;5029183;28;20045;-57
2023/08/12 00:12:40;;;;;;;17.75;10.45;;;;;;;20.82;100.00;101617.31;5030117;28;20148;-56
2023/08/12 00:15:10;;;;;;;14.70;11.00;;;;;;;20.76;100.00;101612.56;5030841;28;20547;-59
2023/08/12 00:17:41;;;;;;;16.63;11.73;;;;;;;20.79;100.00;101604.22;5031086;28;20080;-59
2023/08/12 00:20:12;;;;;;;21.05;11.95;;;;;;;20.73;100.00;101594.16;5033650;28;20051;-56
2023/08/12 00:22:41;;;;;;;16.50;12.27;;;;;;;20.67;100.00;101598.22;5033289;28;20504;-56
2023/08/12 00:25:09;;;;;;;18.63;12.10;;;;;;;20.72;100.00;101605.81;5033377;28;20065;-59
2023/08/12 00:27:38;;;;;;;18.70;12.43;;;;;;;20.66;100.00;101601.88;5033382;28;20501;-59
2023/08/12 00:30:08;;;;;;;17.20;11.80;;;;;;;20.66;100.00;101604.56;5033461;28;20112;-59
2023/08/12 00:32:36;;;;;;;18.63;12.50;;;;;;;20.73;100.00;101594.97;5033193;28;20425;-59
2023/08/12 00:35:08;;;;;;;18.73;12.52;;;;;;;20.68;100.00;101599.06;5033359;28;20069;-59
2023/08/12 00:37:37;;;;;;;19.50;12.85;;;;;;;20.67;100.00;101597.38;5048253;28;20737;-56
2023/08/12 00:40:07;;;;;;;17.45;12.20;;;;;;;20.63;100.00;101591.50;5028406;28;20045;-56
2023/08/12 00:42:35;;;;;;;17.42;12.43;;;;;;;20.64;100.00;101592.31;5029445;28;20041;-56
2023/08/12 00:45:04;;;;;;;18.80;12.75;;;;;;;20.65;100.00;101605.53;5030023;28;20542;-56
2023/08/12 00:47:32;;;;;;;19.38;13.63;;;;;;;20.65;100.00;101602.03;5031768;28;20136;-59
2023/08/12 00:50:00;;;;;;;21.05;14.55;;;;;;;20.60;100.00;101579.28;5033041;28;20107;-59
2023/08/12 00:52:29;;;;;;;21.50;13.45;;;;;;;20.58;100.00;101580.41;5030953;28;20528;-56
2023/08/12 00:54:59;;;;;;;21.17;13.65;;;;;;;20.57;100.00;101566.22;5028191;28;20068;-57
2023/08/12 00:57:41;;;;;;;22.60;15.30;;;;;;;20.54;100.00;101563.81;5030035;28;20045;-57
2023/08/12 01:00:16;;;;;;;21.95;14.88;;;;;;;20.53;100.00;101563.97;5028683;28;20052;-57
2023/08/12 01:02:48;;;;;;;17.80;14.15;;;;;;;20.50;100.00;101565.09;5029469;28;20045;-57
2023/08/12 01:05:16;;;;;;;22.23;15.35;;;;;;;20.41;100.00;101561.50;5045118;28;20053;-57
2023/08/12 01:07:46;;;;;;;19.95;14.73;;;;;;;20.47;100.00;101564.56;5029772;28;20049;-57
2023/08/12 01:10:16;;;;;;;20.58;15.38;;;;;;;20.55;100.00;101557.50;5027988;28;20754;-57
2023/08/12 01:12:51;;;;;;;20.00;14.18;;;;;;;20.52;100.00;101552.47;5031784;28;20381;-57
2023/08/12 01:15:23;;;;;;;17.92;13.85;;;;;;;20.56;100.00;101553.84;5029913;28;20054;-57
2023/08/12 01:17:54;;;;;;;18.70;14.85;;;;;;;20.55;100.00;101543.31;5029700;28;20530;-57
2023/08/12 01:20:25;;;;;;;22.33;15.57;;;;;;;20.57;100.00;101539.50;5032475;28;20531;-57
2023/08/12 01:22:58;;;;;;;17.95;14.38;;;;;;;20.50;100.00;101532.22;5032599;28;20083;-60
2023/08/12 01:25:27;;;;;;;24.50;16.55;;;;;;;20.50;100.00;101541.06;5028711;28;20046;-60
2023/08/12 01:27:56;;;;;;;23.45;15.48;;;;;;;20.48;100.00;101544.88;5029512;28;20064;-60
2023/08/12 01:30:24;;;;;;;22.83;15.45;;;;;;;20.50;100.00;101537.56;5031854;28;20510;-56
2023/08/12 01:33:00;;;;;;;24.38;15.93;;;;;;;20.47;100.00;101535.19;5029022;28;20137;-60
2023/08/12 01:35:34;;;;;;;24.02;15.75;;;;;;;20.48;100.00;101539.53;5030761;28;20404;-60
2023/08/12 01:38:05;;;;;;;21.08;16.30;;;;;;;20.47;100.00;101529.84;5029430;28;20808;-61
2023/08/12 01:40:36;;;;;;;21.00;15.63;;;;;;;20.46;100.00;101520.16;5027183;28;20045;-60
2023/08/12 01:43:07;;;;;;;19.98;16.35;;;;;;;20.44;100.00;101513.13;5029057;28;20046;-57
2023/08/12 01:45:35;;;;;;;21.10;16.40;;;;;;;20.39;100.00;101515.38;5043534;28;20147;-57
2023/08/12 01:48:04;;;;;;;25.05;17.80;;;;;;;20.49;100.00;101509.16;5028779;28;20148;-57
2023/08/12 01:50:32;;;;;;;23.73;15.73;;;;;;;20.42;100.00;101517.78;5028483;28;20045;-60
2023/08/12 01:53:01;;;;;;;24.00;17.10;;;;;;;20.46;100.00;101514.81;5029195;28;20129;-60
2023/08/12 01:55:29;;;;;;;21.98;16.90;;;;;;;20.41;100.00;101505.41;5027741;28;20136;-60
2023/08/12 01:57:58;;;;;;;24.75;16.70;;;;;;;20.36;100.00;101499.66;5030289;28;20061;-61
2023/08/12 02:00:27;;;;;;;24.80;15.95;;;;;;;20.36;100.00;101505.00;5028832;28;20050;-60
2023/08/12 02:02:57;;;;;;;22.10;17.08;;;;;;;20.37;100.00;101503.16;5028331;28;20132;-57
2023/08/12 02:05:26;;;;;;;24.10;17.08;;;;;;;20.41;100.00;101493.88;5028046;28;20059;-57
2023/08/12 02:07:54;;;;;;;21.58;16.42;;;;;;;20.40;100.00;101490.38;5027672;28;20053;-57
2023/08/12 02:10:22;;;;;;;20.35;16.25;;;;;;;20.43;100.00;101484.72;5031718;28;20052;-57
2023/08/12 02:12:50;;;;;;;22.45;17.85;;;;;;;20.38;100.00;101491.50;5031569;28;20405;-60
2023/08/12 02:15:20;;;;;;;26.08;17.20;;;;;;;20.31;100.00;101485.91;5031418;28;20408;-60
2023/08/12 02:17:48;;;;;;;23.05;17.60;;;;;;;20.30;100.00;101492.25;5030977;28;20513;-60
2023/08/12 02:20:18;;;;;;;21.33;16.42;;;;;;;20.28;100.00;101502.22;5028574;28;20049;-60
2023/08/12 02:22:46;;;;;;;21.73;16.98;;;;;;;20.28;100.00;101491.56;5029608;28;20042;-60
2023/08/12 02:25:17;;;;;;;20.35;16.52;;;;;;;20.27;100.00;101506.75;5047028;28;20104;-60
2023/08/12 02:27:45;;;;;;;23.05;17.33;;;;;;;20.30;100.00;101489.59;5031866;28;20515;-60
2023/08/12 02:30:13;;;;;;;23.15;17.25;;;;;;;20.25;100.00;101479.34;5031218;28;20046;-60
2023/08/12 02:32:43;;;;;;;24.88;18.08;;;;;;;20.27;100.00;101485.38;5027759;28;20132;-60
2023/08/12 02:35:11;;;;;;;20.30;16.98;;;;;;;20.27;100.00;101488.06;5029499;28;20050;-57
2023/08/12 02:37:39;;;;;;;22.70;16.25;;;;;;;20.25;100.00;101484.69;5033533;28;20136;-57
2023/08/12 02:40:11;;;;;;;22.33;17.45;;;;;;;20.27;100.00;101477.38;5030231;28;20495;-56
2023/08/12 02:42:39;;;;;;;20.75;16.90;;;;;;;20.31;100.00;101477.91;5047230;28;20046;-56
2023/08/12 02:45:08;;;;;;;23.42;17.25;;;;;;;20.29;100.00;101471.88;5031430;28;20500;-56
2023/08/12 02:47:36;;;;;;;22.88;17.40;;;;;;;20.26;100.00;101472.19;5032196;28;20041;-57
2023/08/12 02:50:07;;;;;;;27.83;18.90;;;;;;;20.25;100.00;101471.31;5050396;28;20045;-57
2023/08/12 02:52:38;;;;;;;22.33;19.10;;;;;;;20.25;100.00;101465.97;5035249;28;20049;-57
2023/08/12 02:55:07;;;;;;;27.13;19.42;;;;;;;20.21;100.00;101463.78;5035181;28;20404;-57
2023/08/12 02:57:35;;;;;;;27.52;20.15;;;;;;;20.18;100.00;101462.22;5031607;28;20060;-57
2023/08/12 03:00:05;;;;;;;24.70;19.75;;;;;;;20.18;100.00;101458.69;5032323;28;20123;-57
2023/08/12 03:02:33;;;;;;;26.15;21.63;;;;;;;20.18;100.00;101456.03;5031540;28;20106;-57
2023/08/12 03:05:02;;;;;;;27.00;21.00;;;;;;;20.20;100.00;101457.56;5032068;28;20046;-57
2023/08/12 03:07:31;;;;;;;24.92;20.60;;;;;;;20.20;100.00;101456.75;5031536;28;20509;-56
2023/08/12 03:09:59;;;;;;;27.73;22.08;;;;;;;20.21;100.00;101458.44;5030017;28;21068;-57
2023/08/12 03:12:28;;;;;;;28.30;21.30;;;;;;;20.20;100.00;101451.41;5031730;28;20038;-57
2023/08/12 03:14:56;;;;;;;27.40;21.83;;;;;;;20.16;100.00;101450.00;5031135;28;20237;-61
2023/08/12 03:17:24;;;;;;;29.70;23.30;;;;;;;20.11;100.00;101447.81;5031724;28;20060;-60
2023/08/12 03:19:54;;;;;;;27.85;22.52;;;;;;;20.15;100.00;101449.19;5031093;28;20060;-60
2023/08/12 03:22:22;;;;;;;27.83;22.92;;;;;;;20.15;100.00;101445.66;5031861;28;20045;-60
2023/08/12 03:24:52;;;;;;;29.35;23.38;;;;;;;20.09;100.00;101439.91;5033869;28;20045;-60
2023/08/12 03:27:20;;;;;;;28.98;22.88;;;;;;;20.10;100.00;101438.09;5031686;28;20073;-57
2023/08/12 03:29:48;;;;;;;30.13;24.17;;;;;;;20.13;100.00;101435.13;5048097;28;20107;-60
2023/08/12 03:32:16;;;;;;;28.85;23.48;;;;;;;20.11;100.00;101437.13;5034524;28;20488;-60
2023/08/12 03:34:44;;;;;;;30.95;24.27;;;;;;;20.13;100.00;101434.31;5034195;28;20520;-60
2023/08/12 03:37:13;;;;;;;29.80;23.92;;;;;;;20.10;100.00;101422.91;5031787;28;20057;-56
2023/08/12 03:39:41;;;;;;;29.27;24.13;;;;;;;20.08;100.00;101421.38;5029066;28;20595;-57
2023/08/12 03:42:10;;;;;;;30.50;23.95;;;;;;;20.07;100.00;101423.22;5030917;28;20779;-56
2023/08/12 03:44:39;;;;;;;31.35;24.73;;;;;;;20.15;100.00;101410.94;5029637;28;20041;-60
2023/08/12 03:47:07;;;;;;;28.23;24.38;;;;;;;20.08;100.00;101403.56;5032055;28;20057;-60
2023/08/12 03:49:38;;;;;;;30.75;24.90;;;;;;;20.09;100.00;101407.88;5030939;28;20500;-60
2023/08/12 03:52:08;;;;;;;31.20;24.20;;;;;;;20.14;100.00;101403.91;5031525;28;20436;-60
2023/08/12 03:54:36;;;;;;;31.02;24.88;;;;;;;20.07;100.00;101401.03;5033999;28;20727;-60
2023/08/12 03:57:04;;;;;;;31.25;25.23;;;;;;;20.06;100.00;101397.50;5034055;28;20084;-60
2023/08/12 03:59:34;;;;;;;29.77;24.95;;;;;;;20.07;100.00;101403.72;5033978;28;20057;-60
2023/08/12 04:02:03;;;;;;;33.03;25.35;;;;;;;20.04;100.00;101399.50;5033673;28;20148;-56
2023/08/12 04:04:32;;;;;;;33.10;25.42;;;;;;;20.05;100.00;101398.47;5033767;28;20160;-56
2023/08/12 04:07:01;;;;;;;29.40;23.58;;;;;;;20.09;100.00;101407.88;5032402;28;20107;-57
2023/08/12 04:09:29;;;;;;;28.48;23.05;;;;;;;20.07;100.00;101398.38;5029548;28;20045;-56
2023/08/12 04:11:57;;;;;;;28.70;22.40;;;;;;;20.05;100.00;101401.16;5030226;28;20077;-56
2023/08/12 04:14:25;;;;;;;26.17;22.77;;;;;;;20.05;100.00;101395.81;5030290;28;20536;-57
2023/08/12 04:16:57;;;;;;;28.30;21.98;;;;;;;20.06;100.00;101399.34;5030948;28;20405;-57
2023/08/12 04:19:26;;;;;;;24.08;20.63;;;;;;;20.07;100.00;101399.19;5033665;28;20224;-56
2023/08/12 04:21:54;;;;;;;25.77;19.88;;;;;;;20.07;100.00;101401.88;5033402;28;20116;-56
2023/08/12 04:24:23;;;;;;;25.23;21.85;;;;;;;20.07;100.00;101385.84;5048981;28;20485;-60
2023/08/12 04:26:51;;;;;;;27.20;21.35;;;;;;;20.13;100.00;101381.72;5048846;28;20057;-60
2023/08/12 04:29:19;;;;;;;27.42;21.70;;;;;;;20.16;100.00;101377.94;5033740;28;20489;-59
2023/08/12 04:31:49;;;;;;;26.67;21.27;;;;;;;20.03;100.00;101381.78;5033659;28;20045;-60
2023/08/12 04:34:19;;;;;;;25.02;21.00;;;;;;;20.04;100.00;101379.94;5033357;28;20485;-59
2023/08/12 04:36:50;;;;;;;27.00;21.70;;;;;;;20.04;100.00;101377.28;5032093;28;20049;-60
2023/08/12 04:39:18;;;;;;;28.13;21.70;;;;;;;20.04;100.00;101375.47;5033364;28;20045;-60
2023/08/12 04:41:49;;;;;;;28.45;22.10;;;;;;;20.06;100.00;101368.13;5033404;28;20131;-60
2023/08/12 04:44:17;;;;;;;26.27;21.35;;;;;;;20.03;100.00;101371.13;5032886;28;20067;-59
2023/08/12 04:46:48;;;;;;;28.73;23.38;;;;;;;19.95;100.00;101363.00;5031581;28;20061;-60
2023/08/12 04:49:17;;;;;;;28.00;22.25;;;;;;;19.99;100.00;101359.06;5030008;28;20045;-56
2023/08/12 04:51:46;;;;;;;27.42;23.35;;;;;;;19.98;100.00;101349.38;5029907;28;20041;-57
2023/08/12 04:54:14;;;;;;;29.50;22.75;;;;;;;20.02;100.00;101358.75;5028525;28;20458;-58
2023/08/12 04:56:43;;;;;;;27.88;22.67;;;;;;;20.07;100.00;101353.81;5031485;28;20400;-57
2023/08/12 04:59:11;;;;;;;27.65;21.30;;;;;;;20.14;100.00;101350.53;5028630;28;20046;-57
2023/08/12 05:01:39;;;;;;;27.42;23.13;;;;;;;20.06;100.00;101356.63;5030717;28;20044;-57
2023/08/12 05:04:25;;;;;;;30.40;23.48;;;;;;;20.13;100.00;101348.88;5032332;28;20655;-56
2023/08/12 05:06:55;;;;;;;29.65;24.92;;;;;;;20.14;100.00;101353.19;5032121;28;20053;-59
2023/08/12 05:09:23;;;;;;;28.23;23.73;;;;;;;20.19;100.00;101340.25;5042965;28;20508;-59
2023/08/12 05:11:52;;;;;;;28.52;24.75;;;;;;;20.22;100.00;101338.13;5029917;28;20060;-61
2023/08/12 05:14:20;;;;;;;30.13;24.98;;;;;;;20.22;100.00;101346.13;5031227;28;20042;-60
2023/08/12 05:16:48;;;;;;;29.85;24.67;;;;;;;20.24;100.00;101351.31;5031954;28;20128;-59
2023/08/12 05:19:17;;;;;;;28.58;24.63;;;;;;;20.23;100.00;101342.47;5032032;28;20466;-60
2023/08/12 05:21:47;;;;;;;29.50;23.00;;;;;;;20.24;100.00;101348.63;5031110;28;20049;-60
2023/08/12 05:24:17;;;;;;;31.95;23.88;;;;;;;20.23;100.00;101341.63;5027691;28;20049;-60
2023/08/12 05:26:45;;;;;;;28.33;23.15;;;;;;;20.27;100.00;101333.16;5028727;28;20148;-60
2023/08/12 05:29:13;;;;;;;27.65;22.80;;;;;;;20.25;100.00;101311.09;5031055;28;20436;-60
2023/08/12 05:31:41;;;;;;;27.38;22.33;;;;;;;20.17;100.00;101323.53;5028860;28;20571;-60
2023/08/12 05:34:09;;;;;;;28.45;22.77;;;;;;;20.20;100.00;101321.38;5030172;28;20060;-60
2023/08/12 05:36:38;;;;;;;23.65;21.00;;;;;;;20.25;100.00;101318.28;5031270;28;20041;-60
2023/08/12 05:39:06;;;;;;;27.90;21.73;;;;;;;20.15;100.00;101315.69;5028298;28;20056;-61
2023/08/12 05:41:35;;;;;;;30.48;22.60;;;;;;;20.16;100.00;101332.53;5031537;28;20124;-61
2023/08/12 05:44:04;;;;;;;25.35;19.02;;;;;;;20.16;100.00;101333.38;5032040;28;20073;-62
2023/08/12 05:46:33;;;;;;;27.33;19.58;;;;;;;20.10;100.00;101340.16;5031671;28;20054;-61
2023/08/12 05:49:01;;;;;;;23.17;18.77;;;;;;;20.08;100.00;101333.28;5028870;28;20093;-61
2023/08/12 05:51:29;;;;;;;20.95;18.65;;;;;;;20.10;100.00;101316.13;5029314;28;20180;-57
2023/08/12 05:53:57;;;;;;;22.38;16.77;;;;;;;20.05;100.00;101315.72;5030926;28;20049;-61
2023/08/12 05:56:26;;;;;;;21.23;16.27;;;;;;;20.02;100.00;101324.03;5031848;28;20076;-61
2023/08/12 05:58:55;;;;;;;20.20;15.77;;;;;;;19.99;100.00;101324.34;5031894;28;20095;-61
2023/08/12 06:01:23;;;;;;;21.85;15.98;;;;;;;20.01;100.00;101326.88;5031469;28;20045;-60
2023/08/12 06:03:52;;;;;;;18.00;13.90;;;;;;;19.99;100.00;101326.16;5028003;28;20053;-57
2023/08/12 06:06:20;;;;;;;22.00;14.07;;;;;;;19.99;100.00;101326.16;5030412;28;20534;-56
2023/08/12 06:08:48;;;;;;;19.15;13.90;;;;;;;19.96;100.00;101327.34;5027435;28;20049;-57
2023/08/12 06:11:16;;;;;;;19.27;13.57;;;;;;;19.92;100.00;101331.28;5028194;28;20053;-56
2023/08/12 06:13:44;;;;;;;20.02;14.00;;;;;;;19.96;100.00;101323.81;5030599;28;20073;-56
2023/08/12 06:16:14;;;;;;;18.50;14.18;;;;;;;19.98;100.00;101313.84;5028858;28;21006;-62
2023/08/12 06:18:42;;;;;;;19.63;15.30;;;;;;;20.02;100.00;101309.88;5029627;28;20054;-62
2023/08/12 06:21:10;;;;;;;19.63;14.15;;;;;;;19.91;100.00;101314.41;5031415;28;20050;-62
2023/08/12 06:23:38;;;;;;;18.95;13.75;;;;;;;19.87;100.00;101315.72;5031323;28;20382;-62
2023/08/12 06:26:07;;;;;;;18.95;12.63;;;;;;;19.91;100.00;101317.09;5028520;28;20099;-62
2023/08/12 06:28:35;;;;;;;14.18;9.40;;;;;;;19.78;100.00;101313.91;5029153;28;20046;-62
2023/08/12 06:31:03;;;;;;;12.95;7.43;;;;;;;19.69;100.00;101309.47;5031446;28;20076;-63
2023/08/12 06:33:33;;;;;;;12.48;7.07;;;;;;;19.63;100.00;101310.88;5031459;28;20041;-56
2023/08/12 06:36:01;;;;;;;11.23;6.18;;;;;;;19.63;100.00;101318.88;5031443;28;20054;-62
2023/08/12 06:38:29;;;;;;;12.55;6.82;;;;;;;19.65;100.00;101318.78;5031357;28;20049;-62
2023/08/12 06:41:00;;;;;;;11.60;6.80;;;;;;;19.66;100.00;101305.28;5030238;28;20041;-62
2023/08/12 06:43:28;;;;;;;11.05;6.38;;;;;;;19.66;100.00;101307.09;5028115;28;20455;-62
2023/08/12 06:45:57;;;;;;;12.43;6.97;;;;;;;19.68;100.00;101305.13;5029795;28;20041;-61
2023/08/12 06:48:25;;;;;;;13.65;7.28;;;;;;;19.71;100.00;101304.81;5031334;28;20056;-61
2023/08/12 06:50:56;;;;;;;13.32;7.22;;;;;;;19.74;100.00;101302.69;5031288;28;20763;-61
2023/08/12 06:53:27;;;;;;;14.48;7.53;;;;;;;19.74;100.00;101297.38;5031191;28;20117;-62
2023/08/12 06:55:55;;;;;;;12.55;8.27;;;;;;;19.81;100.00;101294.13;5031082;28;20121;-57
2023/08/12 06:58:23;;;;;;;14.35;8.10;;;;;;;19.83;100.00;101289.47;5029507;28;20051;-57
2023/08/12 07:00:53;;;;;;;12.57;8.70;;;;;;;19.76;100.00;101299.88;5028077;28;20386;-62
2023/08/12 07:03:21;;;;;;;13.05;8.50;;;;;;;19.83;100.00;101301.00;5030900;28;20489;-62
2023/08/12 07:05:49;;;;;;;12.35;8.23;;;;;;;19.79;100.00;101296.09;5031442;28;20061;-61
2023/08/12 07:08:19;;;;;;;13.23;9.15;;;;;;;19.76;100.00;101290.03;5031108;28;20042;-62
2023/08/12 07:10:47;;;;;;;14.77;9.68;;;;;;;19.83;100.00;101290.31;5031069;28;20493;-61
2023/08/12 07:13:15;;;;;;;15.90;10.05;;;;;;;19.84;100.00;101291.19;5028395;28;20042;-61
2023/08/12 07:15:44;;;;;;;16.08;9.70;;;;;;;19.76;100.00;101290.03;5027531;28;20056;-57
2023/08/12 07:18:13;;;;;;;15.48;9.75;;;;;;;19.89;100.00;101291.53;5027301;28;20049;-57
2023/08/12 07:20:41;;;;;;;15.07;10.00;;;;;;;19.90;100.00;101290.56;5027812;28;20049;-61
2023/08/12 07:23:11;;;;;;;14.90;10.40;;;;;;;19.86;100.00;101274.00;5031573;28;20416;-61
2023/08/12 07:25:41;;;;;;;13.30;10.15;;;;;;;19.86;100.00;101278.50;5032715;28;20959;-61
2023/08/12 07:28:09;;;;;;;14.32;9.75;;;;;;;19.84;100.00;101280.50;5030950;28;20515;-61
2023/08/12 07:30:37;;;;;;;15.48;9.98;;;;;;;19.89;100.00;101273.72;5034086;28;20103;-61
2023/08/12 07:33:06;;;;;;;15.88;10.75;;;;;;;19.90;100.00;101271.88;5033744;28;20057;-61
2023/08/12 07:35:34;;;;;;;14.55;10.52;;;;;;;19.92;100.00;101268.06;5031141;28;20050;-61
2023/08/12 07:38:03;;;;;;;16.02;10.68;;;;;;;19.90;100.00;101264.69;5033106;28;20107;-61
2023/08/12 07:40:31;;;;;;;15.52;10.32;;;;;;;19.82;100.00;101269.13;5034354;28;20049;-63
2023/08/12 07:43:00;;;;;;;13.27;8.27;;;;;;;19.83;100.00;101268.13;5033936;28;20053;-62
2023/08/12 07:45:28;;;;;;;14.13;7.50;;;;;;;19.93;100.00;101260.88;5030896;28;20049;-62
2023/08/12 07:47:56;;;;;;;11.60;7.22;;;;;;;19.84;100.00;101262.66;5030247;28;20531;-62
2023/08/12 07:50:25;;;;;;;10.35;6.63;;;;;;;19.77;100.00;101253.53;5030576;28;20065;-63
2023/08/12 07:52:53;;;;;;;12.25;6.18;;;;;;;19.73;100.00;101254.84;5030675;28;20045;-62
2023/08/12 07:55:21;;;;;;;9.93;6.63;;;;;;;19.75;100.00;101251.00;5028924;28;20137;-62
2023/08/12 07:57:54;;;;;;;8.82;5.88;;;;;;;19.83;100.00;101244.13;5030918;28;20057;-63
2023/08/12 08:00:23;;;;;;;8.93;5.50;;;;;;;19.71;100.00;101241.63;5031267;28;20060;-62
2023/08/12 08:02:52;;;;;;;11.75;4.93;;;;;;;19.77;100.00;101242.88;5030165;28;20052;-62
2023/08/12 08:05:20;;;;;;;7.65;4.50;;;;;;;19.77;100.00;101238.34;5032575;28;20436;-62
2023/08/12 08:07:51;;;;;;;8.52;4.72;;;;;;;19.81;100.00;101238.06;5048714;28;20103;-62
2023/08/12 08:10:19;;;;;;;7.05;4.15;;;;;;;19.82;100.00;101234.44;5033495;28;20061;-61
2023/08/12 08:12:47;;;;;;;7.13;3.47;;;;;;;19.86;100.00;101235.81;5048810;28;20050;-62
2023/08/12 08:15:15;;;;;;;7.65;3.40;;;;;;;19.87;100.00;101235.66;5033542;28;20042;-61
2023/08/12 08:17:45;;;;;;;8.68;4.05;;;;;;;19.88;100.00;101236.50;5033649;28;20037;-57
2023/08/12 08:20:13;;;;;;;5.90;3.78;;;;;;;19.80;100.00;101231.06;5030708;28;20048;-57
2023/08/12 08:22:43;;;;;;;6.47;2.95;;;;;;;19.96;100.00;101230.38;5030512;28;20053;-61
2023/08/12 08:25:12;;;;;;;6.35;3.38;;;;;;;20.03;100.00;101231.47;5033376;28;20051;-61
2023/08/12 08:27:40;;;;;;;7.10;2.97;;;;;;;20.03;100.00;101229.63;5033547;28;20124;-57
2023/08/12 08:30:12;;;;;;;5.65;3.00;;;;;;;20.05;100.00;101219.63;5033435;28;20042;-57
2023/08/12 08:32:41;;;;;;;5.38;2.90;;;;;;;20.06;100.00;101217.81;5030993;28;20527;-61
2023/08/12 08:35:10;;;;;;;5.10;2.85;;;;;;;20.18;100.00;101219.25;5030151;28;20052;-61
2023/08/12 08:37:39;;;;;;;7.55;3.22;;;;;;;20.24;100.00;101213.28;5033194;28;20369;-61
2023/08/12 08:40:09;;;;;;;5.65;3.70;;;;;;;20.15;100.00;101221.38;5048496;28;20545;-60
2023/08/12 08:42:38;;;;;;;6.20;3.40;;;;;;;20.22;100.00;101214.44;5033167;28;20069;-60
2023/08/12 08:45:13;;;;;;;6.97;3.38;;;;;;;20.29;100.00;101218.19;5030570;28;20041;-61
2023/08/12 08:47:42;;;;;;;5.70;3.63;;;;;;;20.28;100.00;101221.84;5029236;28;20516;-61
2023/08/12 08:50:13;;;;;;;5.88;3.85;;;;;;;20.33;100.00;101222.22;5029808;28;20046;-60
2023/08/12 08:52:43;;;;;;;9.18;3.97;;;;;;;20.39;100.00;101218.91;5031235;28;20105;-60
2023/08/12 08:55:12;;;;;;;6.78;4.13;;;;;;;20.36;100.00;101224.56;5033120;28;20053;-56
2023/08/12 08:57:43;;;;;;;6.93;3.85;;;;;;;20.42;100.00;101221.28;5032616;28;20081;-61
2023/08/12 09:00:15;;;;;;;6.80;4.00;;;;;;;20.52;100.00;101228.34;5032332;28;20049;-56
2023/08/12 09:02:48;;;;;;;5.75;3.83;;;;;;;20.49;100.00;101228.66;5029677;28;20493;-57
2023/08/12 09:05:18;;;;;;;5.05;3.40;;;;;;;20.51;100.00;101227.53;5030609;28;20047;-57
2023/08/12 09:07:48;;;;;;;5.82;3.70;;;;;;;20.49;100.00;101231.34;5030122;28;20051;-56
2023/08/12 09:10:21;;;;;;;5.50;3.88;;;;;;;20.54;100.00;101237.06;5027915;28;20106;-57
2023/08/12 09:12:52;;;;;;;5.72;3.90;;;;;;;20.57;100.00;101236.75;5031649;28;20077;-57
2023/08/12 09:15:20;;;;;;;5.80;3.72;;;;;;;20.61;100.00;101246.13;5029238;28;20077;-57
2023/08/12 09:17:49;;;;;;;5.05;3.53;;;;;;;20.68;100.00;101249.91;5030949;28;20091;-56
2023/08/12 09:20:18;;;;;;;6.45;3.47;;;;;;;20.76;100.00;101244.59;5032639;28;20385;-55
2023/08/12 09:22:47;;;;;;;5.72;3.80;;;;;;;20.79;100.00;101245.28;5029908;28;20583;-57
2023/08/12 09:25:22;;;;;;;5.45;3.13;;;;;;;20.82;100.00;101248.47;5027775;28;20512;-56
2023/08/12 09:27:50;;;;;;;4.78;3.30;;;;;;;20.73;100.00;101254.75;5030380;28;20071;-57
2023/08/12 09:30:18;;;;;;;4.78;3.00;;;;;;;20.88;100.00;101257.69;5031935;28;20056;-57
2023/08/12 09:33:00;;;;;;;4.82;3.33;;;;;;;20.94;100.00;101252.56;5031942;28;20618;-57
2023/08/12 09:35:35;;;;;;;4.87;3.60;;;;;;;20.84;100.00;101259.84;5028709;28;20049;-60
2023/08/12 09:38:06;;;;;;;4.85;3.00;;;;;;;20.78;100.00;101265.81;5028874;28;20482;-62
2023/08/12 09:40:35;;;;;;;4.50;2.97;;;;;;;20.79;100.00;101263.97;5027782;28;20382;-61
2023/08/12 09:43:04;;;;;;;3.58;2.20;;;;;;;20.89;100.00;101272.75;5030499;28;20069;-61
2023/08/12 09:45:35;;;;;;;2.78;1.83;;;;;;;20.93;100.00;101272.25;5031050;28;20562;-60
2023/08/12 09:48:04;;;;;;;3.65;1.77;;;;;;;21.25;100.00;101269.91;5031401;28;20057;-63
2023/08/12 09:50:34;;;;;;;2.78;1.35;;;;;;;21.24;100.00;101276.25;5028111;28;20057;-61
2023/08/12 09:53:04;;;;;;;2.42;1.20;;;;;;;21.41;100.00;101278.00;5029270;28;20068;-61
2023/08/12 09:55:37;;;;;;;1.55;1.20;;;;;;;21.59;100.00;101269.91;5027072;28;20052;-61
2023/08/12 09:58:08;;;;;;;1.00;0.90;;;;;;;21.57;100.00;101271.94;5029563;28;20480;-60
2023/08/12 10:00:36;;;;;;;1.33;1.00;;;;;;;21.62;100.00;101271.44;5028506;28;20049;-60
2023/08/12 10:03:08;;;;;;;3.58;1.20;;;;;;;21.80;100.00;101278.50;5031793;28;20052;-60
2023/08/12 10:05:38;;;;;;;1.63;1.00;;;;;;;21.71;100.00;101281.16;5031779;28;20057;-60
2023/08/12 10:08:09;;;;;;;1.25;1.00;;;;;;;21.57;100.00;101282.63;5031630;28;20045;-60
2023/08/12 10:10:37;;;;;;;1.77;1.15;;;;;;;21.65;100.00;101272.94;5031700;28;20053;-60
2023/08/12 10:13:07;;;;;;;1.45;1.10;;;;;;;21.61;100.00;101289.34;5031525;28;20072;-60
2023/08/12 10:15:36;;;;;;;2.13;1.15;;;;;;;21.80;100.00;101278.50;5028292;28;20069;-61
2023/08/12 10:18:05;;;;;;;1.73;1.02;;;;;;;22.22;100.00;101274.91;5028851;28;20042;-60
2023/08/12 10:20:40;;;;;;;1.50;1.27;;;;;;;22.59;100.00;101260.19;5030046;28;20104;-60
2023/08/12 10:23:11;;;;;;;1.10;0.80;;;;;;;22.65;100.00;101267.56;5031427;28;20054;-60
2023/08/12 10:25:44;;;;;;;1.50;1.00;;;;;;;22.95;100.00;101278.56;5026467;28;20063;-60
2023/08/12 10:28:13;;;;;;;1.73;1.10;;;;;;;23.35;100.00;101284.84;5028603;28;20115;-59
2023/08/12 10:30:42;;;;;;;1.15;0.80;;;;;;;23.52;100.00;101285.63;5029480;28;20042;-59
2023/08/12 10:33:11;;;;;;;2.28;1.00;;;;;;;23.44;100.00;101297.22;5031431;28;20067;-59
2023/08/12 10:35:45;;;;;;;2.20;0.90;;;;;;;23.49;100.00;101302.06;5031447;28;20045;-59
2023/08/12 10:38:17;;;;;;;2.95;1.20;;;;;;;23.38;100.00;101308.66;5028076;28;20041;-59
2023/08/12 10:40:46;;;;;;;2.08;1.00;;;;;;;23.34;100.00;101303.81;5028564;28;20451;-59
2023/08/12 10:43:14;;;;;;;4.18;1.20;;;;;;;23.55;100.00;101311.28;5031358;28;20432;-59
2023/08/12 10:45:44;;;;;;;2.05;1.10;;;;;;;23.40;100.00;101322.72;5031259;28;20041;-55
2023/08/12 10:48:18;;;;;;;3.40;1.10;;;;;;;23.45;100.00;101317.69;5030920;28;20060;-60
2023/08/12 10:50:50;;;;;;;3.20;1.52;;;;;;;23.25;100.00;101327.97;5030949;28;20056;-59
2023/08/12 10:53:29;;;;;;;4.18;1.50;;;;;;;23.24;100.00;101331.66;5032062;28;20072;-55
2023/08/12 10:55:59;;;;;;;5.25;1.70;;;;;;;23.28;100.00;101329.47;5029465;28;20044;-59
2023/08/12 10:58:29;;;;;;;4.72;1.83;;;;;;;23.44;100.00;101320.53;5030489;28;20053;-59
2023/08/12 11:00:58;;;;;;;5.30;1.83;;;;;;;23.48;100.00;101319.19;5031826;28;20456;-59
2023/08/12 11:03:26;;;;;;;4.72;2.00;;;;;;;23.41;100.00;101319.03;5035233;28;20041;-59
2023/08/12 11:05:56;;;;;;;4.30;1.60;;;;;;;23.70;100.00;101339.06;5033473;28;20045;-59
2023/08/12 11:08:27;;;;;;;3.88;1.80;;;;;;;23.82;100.00;101330.59;5030841;28;20053;-60
2023/08/12 11:10:57;;;;;;;2.67;1.42;;;;;;;24.17;100.00;101328.41;5046691;28;20053;-59
2023/08/12 11:13:28;;;;;;;5.50;1.70;;;;;;;24.41;100.00;101325.56;5031880;28;20057;-59
2023/08/12 11:16:08;;;;;;;3.22;1.33;;;;;;;24.64;100.00;101340.88;5031733;28;20050;-58